createdAt,value
2022-07-31T00:00:49.990Z,25.51
2022-07-31T00:03:18.247Z,25.53
2022-07-31T00:05:46.623Z,25.45
2022-07-31T00:08:16.662Z,25.78
2022-07-31T00:10:44.773Z,25.43
2022-07-31T00:13:14.262Z,25.33
2022-07-31T00:15:42.358Z,25.15
2022-07-31T00:18:10.534Z,25.08
2022-07-31T00:20:38.864Z,24.96
2022-07-31T00:23:07.002Z,24.99
2022-07-31T00:25:36.477Z,25.48
2022-07-31T00:28:05.172Z,25.24
2022-07-31T00:30:33.369Z,25.34
2022-07-31T00:33:01.398Z,25.34
2022-07-31T00:35:29.681Z,25.28
2022-07-31T00:38:24.704Z,25.30
2022-07-31T00:40:51.186Z,25.83
2022-07-31T00:43:19.604Z,25.15
2022-07-31T00:45:50.538Z,25.25
2022-07-31T00:48:27.972Z,25.36
2022-07-31T00:50:56.475Z,25.39
2022-07-31T00:53:24.619Z,25.32
2022-07-31T00:55:54.066Z,25.66
2022-07-31T00:58:22.321Z,25.38
2022-07-31T01:00:50.826Z,25.42
2022-07-31T01:03:19.818Z,25.23
2022-07-31T01:05:48.158Z,25.15
2022-07-31T01:08:16.759Z,25.25
2022-07-31T01:10:52.060Z,25.76
2022-07-31T01:13:27.950Z,25.62
2022-07-31T01:15:56.678Z,25.30
2022-07-31T01:18:25.884Z,25.14
2022-07-31T01:20:55.973Z,25.39
2022-07-31T01:23:54.895Z,25.45
2022-07-31T01:26:35.554Z,25.06
2022-07-31T01:29:15.241Z,24.77
2022-07-31T01:31:45.503Z,24.26
2022-07-31T01:34:21.729Z,24.33
2022-07-31T01:36:58.746Z,24.36
2022-07-31T01:39:27.736Z,23.89
2022-07-31T01:42:04.688Z,23.86
2022-07-31T01:44:39.573Z,23.99
2022-07-31T01:47:08.586Z,23.62
2022-07-31T01:49:37.945Z,23.71
2022-07-31T01:52:07.060Z,23.50
2022-07-31T01:54:36.379Z,23.40
2022-07-31T01:57:05.774Z,23.47
2022-07-31T01:59:36.108Z,23.43
2022-07-31T02:02:05.875Z,23.02
2022-07-31T02:04:38.227Z,22.99
2022-07-31T02:07:08.381Z,22.99
2022-07-31T02:09:37.312Z,23.09
2022-07-31T02:12:09.885Z,22.82
2022-07-31T02:14:41.782Z,22.94
2022-07-31T02:17:10.796Z,22.76
2022-07-31T02:19:40.735Z,22.79
2022-07-31T02:22:29.605Z,22.51
2022-07-31T02:24:57.917Z,22.42
2022-07-31T02:27:57.578Z,22.68
2022-07-31T02:30:17.464Z,22.73
2022-07-31T02:32:47.546Z,22.68
2022-07-31T02:35:18.080Z,22.74
2022-07-31T02:37:47.604Z,22.42
2022-07-31T02:40:15.988Z,22.24
2022-07-31T02:42:44.639Z,22.06
2022-07-31T02:45:13.562Z,22.05
2022-07-31T02:47:43.272Z,22.39
2022-07-31T02:50:12.168Z,22.12
2022-07-31T02:52:40.768Z,21.87
2022-07-31T02:55:09.918Z,22.10
2022-07-31T02:57:38.165Z,21.97
2022-07-31T03:00:19.589Z,22.72
2022-07-31T03:02:49.016Z,22.25
2022-07-31T03:05:17.490Z,21.79
2022-07-31T03:07:45.605Z,21.72
2022-07-31T03:10:14.207Z,21.73
2022-07-31T03:12:44.480Z,21.96
2022-07-31T03:15:14.278Z,21.94
2022-07-31T03:17:43.259Z,21.90
2022-07-31T03:20:13.910Z,22.02
2022-07-31T03:22:42.884Z,21.93
2022-07-31T03:25:11.987Z,21.83
2022-07-31T03:27:55.920Z,21.75
2022-07-31T03:30:26.140Z,21.83
2022-07-31T03:32:55.010Z,21.68
2022-07-31T03:35:25.462Z,21.97
2022-07-31T03:37:53.968Z,21.58
2022-07-31T03:40:22.502Z,21.33
2022-07-31T03:42:51.152Z,21.62
2022-07-31T03:45:20.725Z,21.78
2022-07-31T03:47:49.176Z,21.54
2022-07-31T03:50:17.842Z,21.54
2022-07-31T03:52:48.557Z,21.80
2022-07-31T03:55:17.027Z,21.64
2022-07-31T03:57:46.045Z,21.69
2022-07-31T04:00:17.935Z,21.94
2022-07-31T04:02:47.139Z,21.71
2022-07-31T04:05:15.515Z,21.56
2022-07-31T04:07:43.638Z,21.51
2022-07-31T04:10:13.874Z,21.99
2022-07-31T04:12:42.139Z,21.64
2022-07-31T04:15:10.932Z,21.77
2022-07-31T04:17:39.255Z,21.63
2022-07-31T04:20:08.872Z,21.86
2022-07-31T04:22:37.096Z,21.68
2022-07-31T04:25:09.039Z,22.00
2022-07-31T04:27:47.993Z,22.17
2022-07-31T04:30:17.738Z,21.81
2022-07-31T04:32:45.964Z,21.60
2022-07-31T04:35:14.825Z,21.27
2022-07-31T04:37:48.102Z,21.47
2022-07-31T04:40:17.255Z,21.75
2022-07-31T04:42:46.967Z,21.97
2022-07-31T04:45:15.285Z,21.73
2022-07-31T04:47:43.299Z,21.50
2022-07-31T04:50:12.110Z,21.67
2022-07-31T04:52:40.289Z,21.49
2022-07-31T04:55:09.194Z,21.58
2022-07-31T04:57:37.918Z,21.18
2022-07-31T05:00:09.535Z,21.76
2022-07-31T05:02:37.934Z,21.64
2022-07-31T05:05:07.201Z,21.90
2022-07-31T05:07:35.558Z,21.69
2022-07-31T05:10:03.738Z,21.61
2022-07-31T05:12:32.356Z,21.64
2022-07-31T05:15:00.741Z,21.69
2022-07-31T05:17:30.322Z,22.09
2022-07-31T05:19:58.672Z,21.66
2022-07-31T05:22:26.813Z,21.69
2022-07-31T05:24:55.027Z,21.54
2022-07-31T05:27:23.584Z,21.55
2022-07-31T05:29:51.695Z,21.64
2022-07-31T05:32:19.818Z,21.78
2022-07-31T05:34:49.473Z,22.17
2022-07-31T05:37:18.044Z,21.55
2022-07-31T05:39:46.336Z,21.68
2022-07-31T05:42:14.914Z,21.68
2022-07-31T05:44:42.962Z,21.60
2022-07-31T05:47:11.057Z,21.59
2022-07-31T05:49:39.314Z,21.63
2022-07-31T05:52:08.923Z,21.90
2022-07-31T05:54:37.134Z,21.57
2022-07-31T05:57:05.582Z,21.43
2022-07-31T05:59:35.537Z,21.51
2022-07-31T06:02:04.314Z,21.56
2022-07-31T06:04:32.915Z,21.61
2022-07-31T06:07:01.016Z,21.50
2022-07-31T06:09:30.785Z,21.75
2022-07-31T06:11:59.269Z,21.17
2022-07-31T06:14:27.339Z,21.07
2022-07-31T06:16:55.496Z,21.19
2022-07-31T06:19:24.920Z,20.88
2022-07-31T06:21:53.909Z,20.96
2022-07-31T06:24:22.372Z,21.09
2022-07-31T06:26:52.081Z,21.61
2022-07-31T06:29:20.453Z,21.33
2022-07-31T06:32:08.931Z,21.02
2022-07-31T06:34:37.428Z,21.38
2022-07-31T06:37:05.610Z,21.18
2022-07-31T06:39:55.668Z,21.21
2022-07-31T06:42:24.516Z,21.50
2022-07-31T06:44:53.369Z,21.29
2022-07-31T06:47:23.521Z,21.50
2022-07-31T06:49:52.303Z,21.34
2022-07-31T06:52:21.031Z,21.36
2022-07-31T06:54:49.105Z,21.54
2022-07-31T06:57:17.338Z,21.34
2022-07-31T06:59:46.998Z,21.78
2022-07-31T07:02:15.365Z,21.51
2022-07-31T07:05:04.491Z,21.17
2022-07-31T07:07:32.323Z,21.12
2022-07-31T07:10:00.558Z,21.33
2022-07-31T07:12:28.776Z,21.05
2022-07-31T07:14:59.086Z,21.63
2022-07-31T07:17:29.145Z,21.34
2022-07-31T07:19:58.173Z,21.37
2022-07-31T07:22:31.098Z,21.32
2022-07-31T07:25:01.418Z,21.30
2022-07-31T07:27:29.699Z,21.20
2022-07-31T07:30:00.751Z,21.72
2022-07-31T07:32:29.025Z,21.08
2022-07-31T07:35:00.279Z,21.18
2022-07-31T07:37:29.890Z,21.48
2022-07-31T07:39:58.210Z,20.97
2022-07-31T07:42:33.004Z,21.18
2022-07-31T07:45:03.404Z,21.59
2022-07-31T07:47:53.903Z,21.40
2022-07-31T07:50:27.057Z,21.21
2022-07-31T07:52:58.280Z,21.18
2022-07-31T07:55:27.165Z,21.28
2022-07-31T07:57:55.540Z,20.90
2022-07-31T08:00:26.203Z,21.22
2022-07-31T08:03:46.439Z,20.99
2022-07-31T08:05:42.846Z,21.06
2022-07-31T08:08:11.344Z,21.03
2022-07-31T08:10:41.188Z,21.07
2022-07-31T08:13:09.488Z,21.16
2022-07-31T08:15:39.253Z,21.36
2022-07-31T08:18:07.908Z,20.90
2022-07-31T08:20:38.037Z,21.52
2022-07-31T08:23:06.844Z,21.07
2022-07-31T08:25:35.018Z,21.22
2022-07-31T08:28:03.301Z,21.17
2022-07-31T08:30:34.327Z,21.46
2022-07-31T08:33:03.920Z,21.79
2022-07-31T08:35:32.890Z,21.64
2022-07-31T08:38:03.469Z,21.54
2022-07-31T08:40:34.861Z,22.51
2022-07-31T08:44:00.502Z,21.51
2022-07-31T08:46:02.680Z,21.60
2022-07-31T08:48:34.246Z,21.80
2022-07-31T08:51:04.537Z,21.57
2022-07-31T08:53:37.661Z,21.78
2022-07-31T08:56:07.220Z,21.66
2022-07-31T08:58:39.278Z,21.41
2022-07-31T09:01:08.646Z,21.62
2022-07-31T09:03:38.687Z,21.43
2022-07-31T09:06:07.802Z,21.56
2022-07-31T09:08:37.181Z,21.44
2022-07-31T09:11:06.655Z,21.59
2022-07-31T09:13:35.902Z,21.82
2022-07-31T09:16:04.640Z,21.50
2022-07-31T09:18:33.525Z,21.68
2022-07-31T09:21:04.883Z,22.14
2022-07-31T09:23:33.369Z,21.74
2022-07-31T09:26:03.600Z,22.34
2022-07-31T09:28:36.220Z,22.66
2022-07-31T09:31:05.428Z,22.23
2022-07-31T09:33:34.499Z,22.18
2022-07-31T09:36:05.488Z,22.21
2022-07-31T09:38:34.911Z,21.76
2022-07-31T09:41:23.180Z,22.15
2022-07-31T09:44:01.095Z,21.72
2022-07-31T09:46:40.016Z,22.18
2022-07-31T09:49:08.538Z,21.58
2022-07-31T09:51:41.231Z,22.10
2022-07-31T09:54:15.199Z,21.53
2022-07-31T09:56:44.901Z,21.49
2022-07-31T09:59:13.275Z,21.73
2022-07-31T10:01:41.767Z,21.87
2022-07-31T10:04:10.737Z,21.98
2022-07-31T10:06:41.273Z,22.10
2022-07-31T10:09:10.010Z,21.99
2022-07-31T10:11:39.531Z,22.11
2022-07-31T10:14:14.631Z,22.38
2022-07-31T10:16:43.958Z,22.11
2022-07-31T10:19:14.136Z,22.12
2022-07-31T10:21:46.208Z,22.16
2022-07-31T10:24:14.912Z,21.79
2022-07-31T10:27:00.245Z,21.98
2022-07-31T10:29:32.713Z,22.25
2022-07-31T10:32:01.303Z,23.04
2022-07-31T10:34:29.948Z,22.00
2022-07-31T10:37:10.985Z,22.66
2022-07-31T10:39:45.517Z,22.60
2022-07-31T10:42:19.351Z,22.62
2022-07-31T10:44:52.172Z,22.72
2022-07-31T10:47:20.705Z,22.20
2022-07-31T10:49:50.581Z,22.14
2022-07-31T10:52:30.120Z,22.57
2022-07-31T10:55:01.196Z,22.22
2022-07-31T10:57:30.705Z,22.34
2022-07-31T11:00:11.940Z,22.42
2022-07-31T11:02:40.359Z,22.90
2022-07-31T11:05:13.402Z,22.20
2022-07-31T11:07:44.597Z,22.02
2022-07-31T11:10:18.111Z,21.82
2022-07-31T11:12:47.446Z,21.60
2022-07-31T11:15:20.821Z,22.05
2022-07-31T11:18:25.198Z,21.40
2022-07-31T11:20:39.021Z,21.66
2022-07-31T11:23:10.208Z,21.94
2022-07-31T11:25:39.154Z,21.79
2022-07-31T11:28:16.224Z,22.05
2022-07-31T11:30:52.341Z,22.23
2022-07-31T11:33:40.974Z,22.21
2022-07-31T11:36:14.660Z,22.04
2022-07-31T11:38:46.876Z,21.92
2022-07-31T11:41:15.842Z,21.55
2022-07-31T11:43:49.156Z,22.18
2022-07-31T11:46:21.037Z,22.10
2022-07-31T11:48:51.403Z,21.80
2022-07-31T11:51:20.798Z,21.93
2022-07-31T11:53:50.704Z,22.16
2022-07-31T11:56:27.365Z,22.11
2022-07-31T11:58:57.290Z,22.03
2022-07-31T12:01:29.549Z,22.25
2022-07-31T12:04:08.478Z,21.61
2022-07-31T12:06:38.606Z,21.70
2022-07-31T12:09:08.394Z,21.91
2022-07-31T12:11:56.757Z,21.85
2022-07-31T12:14:32.662Z,22.40
2022-07-31T12:17:01.422Z,21.69
2022-07-31T12:19:31.469Z,21.98
2022-07-31T12:22:14.140Z,22.79
2022-07-31T12:24:44.237Z,22.55
2022-07-31T12:27:16.469Z,22.89
2022-07-31T12:29:45.149Z,22.30
2022-07-31T12:32:13.355Z,22.36
2022-07-31T12:34:43.029Z,22.74
2022-07-31T12:37:12.973Z,22.94
2022-07-31T12:40:00.781Z,23.36
2022-07-31T12:42:33.225Z,22.91
2022-07-31T12:45:18.555Z,22.95
2022-07-31T12:47:51.365Z,22.66
2022-07-31T12:50:20.390Z,23.71
2022-07-31T12:52:48.988Z,22.88
2022-07-31T12:55:19.863Z,22.97
2022-07-31T12:57:51.577Z,22.97
2022-07-31T13:00:22.899Z,23.23
2022-07-31T13:02:51.578Z,23.03
2022-07-31T13:05:20.076Z,23.39
2022-07-31T13:07:48.586Z,23.17
2022-07-31T13:10:21.127Z,23.74
2022-07-31T13:12:52.603Z,23.35
2022-07-31T13:15:23.418Z,23.25
2022-07-31T13:17:51.776Z,23.39
2022-07-31T13:20:20.358Z,23.43
2022-07-31T13:22:48.735Z,23.45
2022-07-31T13:25:19.409Z,23.97
2022-07-31T13:27:49.435Z,23.60
2022-07-31T13:30:17.673Z,23.75
2022-07-31T13:32:46.546Z,23.59
2022-07-31T13:35:26.983Z,23.61
2022-07-31T13:37:56.495Z,23.61
2022-07-31T13:40:40.539Z,23.88
2022-07-31T13:43:09.048Z,23.37
2022-07-31T13:45:38.227Z,23.81
2022-07-31T13:48:09.677Z,23.78
2022-07-31T13:50:39.887Z,23.74
2022-07-31T13:53:08.618Z,23.99
2022-07-31T13:55:38.930Z,24.33
2022-07-31T13:58:08.436Z,24.00
2022-07-31T14:00:37.459Z,24.12
2022-07-31T14:03:05.810Z,24.20
2022-07-31T14:05:40.104Z,24.32
2022-07-31T14:08:32.888Z,24.57
2022-07-31T14:10:59.757Z,24.60
2022-07-31T14:13:29.073Z,24.31
2022-07-31T14:15:57.479Z,24.35
2022-07-31T14:18:26.238Z,24.31
2022-07-31T14:20:54.501Z,24.23
2022-07-31T14:23:27.836Z,24.27
2022-07-31T14:26:05.251Z,24.60
2022-07-31T14:28:33.603Z,24.09
2022-07-31T14:31:01.950Z,24.12
2022-07-31T14:33:30.439Z,24.11
2022-07-31T14:35:58.929Z,24.30
2022-07-31T14:38:27.928Z,24.34
2022-07-31T14:40:56.713Z,24.16
2022-07-31T14:43:26.673Z,24.62
2022-07-31T14:45:54.816Z,24.09
2022-07-31T14:48:24.714Z,24.24
2022-07-31T14:50:53.026Z,24.01
2022-07-31T14:53:21.235Z,23.99
2022-07-31T14:55:49.629Z,23.95
2022-07-31T14:58:18.214Z,24.10
2022-07-31T15:00:47.955Z,24.26
2022-07-31T15:03:16.506Z,23.92
2022-07-31T15:06:50.820Z,23.92
2022-07-31T15:08:33.634Z,24.02
2022-07-31T15:11:01.845Z,23.94
2022-07-31T15:13:30.743Z,24.01
2022-07-31T15:16:00.545Z,24.28
2022-07-31T15:18:29.032Z,23.98
2022-07-31T15:20:57.352Z,24.02
2022-07-31T15:23:25.966Z,23.99
2022-07-31T15:26:04.630Z,24.23
2022-07-31T15:28:34.597Z,24.19
2022-07-31T15:31:04.639Z,24.57
2022-07-31T15:33:33.441Z,24.28
2022-07-31T15:36:02.548Z,24.15
2022-07-31T15:38:30.916Z,24.06
2022-07-31T15:41:00.261Z,24.10
2022-07-31T15:43:28.689Z,23.99
2022-07-31T15:45:56.876Z,24.02
2022-07-31T15:48:26.759Z,24.62
2022-07-31T15:50:55.437Z,24.57
2022-07-31T15:53:26.237Z,24.76
2022-07-31T15:55:58.409Z,24.85
2022-07-31T15:58:26.905Z,25.24
2022-07-31T16:00:57.382Z,25.42
2022-07-31T16:03:50.345Z,25.90
2022-07-31T16:06:15.563Z,25.61
2022-07-31T16:08:47.041Z,25.57
2022-07-31T16:11:15.564Z,25.71
2022-07-31T16:13:43.770Z,25.67
2022-07-31T16:16:12.330Z,25.69
2022-07-31T16:18:41.916Z,25.99
2022-07-31T16:21:10.238Z,25.63
2022-07-31T16:23:38.623Z,25.63
2022-07-31T16:26:07.878Z,25.72
2022-07-31T16:28:36.004Z,25.74
2022-07-31T16:31:04.762Z,25.72
2022-07-31T16:33:32.996Z,25.90
2022-07-31T16:36:02.687Z,26.34
2022-07-31T16:38:31.149Z,26.05
2022-07-31T16:40:59.401Z,26.09
2022-07-31T16:43:49.860Z,26.16
2022-07-31T16:46:16.631Z,26.41
2022-07-31T16:48:44.722Z,26.23
2022-07-31T16:51:14.268Z,26.72
2022-07-31T16:54:13.662Z,26.51
2022-07-31T16:56:31.549Z,26.69
2022-07-31T16:59:03.720Z,26.80
2022-07-31T17:01:54.045Z,26.91
2022-07-31T17:04:20.668Z,26.71
2022-07-31T17:06:50.116Z,27.03
2022-07-31T17:09:18.738Z,26.57
2022-07-31T17:11:49.727Z,26.74
2022-07-31T17:14:18.782Z,26.42
2022-07-31T17:16:48.813Z,26.25
2022-07-31T17:19:42.333Z,26.19
2022-07-31T17:22:08.013Z,26.37
2022-07-31T17:24:37.860Z,26.30
2022-07-31T17:27:08.603Z,26.13
2022-07-31T17:29:37.573Z,25.93
2022-07-31T17:32:06.394Z,26.00
2022-07-31T17:34:35.547Z,25.85
2022-07-31T17:37:04.492Z,25.92
2022-07-31T17:39:35.302Z,26.30
2022-07-31T17:42:03.534Z,26.00
2022-07-31T17:44:32.426Z,26.05
2022-07-31T17:47:03.741Z,25.83
2022-07-31T17:49:33.779Z,26.04
2022-07-31T17:52:02.024Z,26.05
2022-07-31T17:54:31.514Z,26.27
2022-07-31T17:57:01.607Z,26.39
2022-07-31T17:59:30.373Z,26.01
2022-07-31T18:02:00.823Z,25.84
2022-07-31T18:04:30.139Z,26.04
2022-07-31T18:06:58.494Z,25.82
2022-07-31T18:09:26.756Z,25.81
2022-07-31T18:11:55.523Z,26.00
2022-07-31T18:14:25.674Z,26.29
2022-07-31T18:16:53.968Z,25.73
2022-07-31T18:19:22.641Z,25.51
2022-07-31T18:21:51.397Z,25.62
2022-07-31T18:24:19.560Z,25.45
2022-07-31T18:26:48.085Z,25.46
2022-07-31T18:29:17.137Z,25.51
2022-07-31T18:31:47.350Z,25.85
2022-07-31T18:34:16.254Z,25.52
2022-07-31T18:36:44.631Z,25.33
2022-07-31T18:39:12.820Z,25.17
2022-07-31T18:41:46.922Z,25.08
2022-07-31T18:44:16.867Z,25.09
2022-07-31T18:46:46.573Z,25.50
2022-07-31T18:50:59.210Z,25.05
2022-07-31T18:52:03.527Z,24.98
2022-07-31T18:54:32.194Z,25.22
2022-07-31T18:57:00.629Z,25.20
2022-07-31T18:59:28.923Z,25.07
2022-07-31T19:01:59.488Z,25.55
2022-07-31T19:04:28.050Z,25.29
2022-07-31T19:06:56.755Z,25.27
2022-07-31T19:09:25.372Z,25.13
2022-07-31T19:11:55.868Z,24.99
2022-07-31T19:14:27.264Z,25.00
2022-07-31T19:16:58.023Z,24.89
2022-07-31T19:19:31.743Z,25.25
2022-07-31T19:22:16.485Z,24.77
2022-07-31T19:24:44.516Z,24.75
2022-07-31T19:27:12.652Z,24.83
2022-07-31T19:29:40.973Z,24.78
2022-07-31T19:32:09.111Z,24.75
2022-07-31T19:34:38.620Z,24.96
2022-07-31T19:37:10.497Z,24.37
2022-07-31T19:39:38.658Z,24.31
2022-07-31T19:42:20.942Z,24.30
2022-07-31T19:44:49.297Z,24.36
2022-07-31T19:47:17.624Z,24.29
2022-07-31T19:49:49.609Z,24.76
2022-07-31T19:52:17.967Z,24.42
2022-07-31T19:54:46.180Z,24.41
2022-07-31T19:57:14.290Z,24.35
2022-07-31T19:59:43.220Z,24.36
2022-07-31T20:02:16.740Z,24.43
2022-07-31T20:04:45.446Z,24.50
2022-07-31T20:07:17.555Z,25.07
2022-07-31T20:09:46.007Z,24.51
2022-07-31T20:12:15.268Z,24.42
2022-07-31T20:14:43.717Z,24.30
2022-07-31T20:17:12.022Z,24.24
2022-07-31T20:20:13.283Z,24.23
2022-07-31T20:22:29.760Z,24.62
2022-07-31T20:24:58.124Z,24.25
2022-07-31T20:27:26.310Z,24.25
2022-07-31T20:29:54.469Z,24.25
2022-07-31T20:32:23.072Z,24.17
2022-07-31T20:34:51.722Z,24.15
2022-07-31T20:37:19.873Z,24.26
2022-07-31T20:39:49.649Z,24.62
2022-07-31T20:42:17.724Z,24.18
2022-07-31T20:44:45.839Z,24.23
2022-07-31T20:47:14.641Z,24.16
2022-07-31T20:49:42.941Z,24.13
2022-07-31T20:52:11.392Z,24.10
2022-07-31T20:54:39.851Z,23.98
2022-07-31T20:57:09.508Z,24.29
2022-07-31T20:59:37.578Z,23.87
2022-07-31T21:02:06.234Z,23.86
2022-07-31T21:04:34.587Z,23.84
2022-07-31T21:07:02.728Z,23.87
2022-07-31T21:09:32.365Z,23.88
2022-07-31T21:12:02.575Z,23.91
2022-07-31T21:14:32.334Z,24.37
2022-07-31T21:17:00.910Z,24.01
2022-07-31T21:19:29.401Z,24.11
2022-07-31T21:21:57.588Z,24.01
2022-07-31T21:24:26.380Z,24.13
2022-07-31T21:26:54.881Z,24.13
2022-07-31T21:29:27.196Z,24.10
2022-07-31T21:31:57.616Z,24.33
2022-07-31T21:34:26.315Z,24.04
2022-07-31T21:36:55.114Z,24.00
2022-07-31T21:39:25.947Z,23.97
2022-07-31T21:41:54.649Z,24.00
2022-07-31T21:44:23.235Z,23.86
2022-07-31T21:46:56.817Z,24.28
2022-07-31T21:49:26.106Z,24.15
2022-07-31T21:51:54.976Z,23.95
2022-07-31T21:54:23.527Z,23.74
2022-07-31T21:56:52.103Z,23.70
2022-07-31T21:59:20.293Z,23.68
2022-07-31T22:01:57.741Z,23.69
2022-07-31T22:04:58.902Z,24.06
2022-07-31T22:07:34.991Z,23.59
2022-07-31T22:10:03.482Z,23.45
2022-07-31T22:12:31.594Z,23.44
2022-07-31T22:14:59.928Z,23.38
2022-07-31T22:17:28.249Z,23.38
2022-07-31T22:19:59.543Z,23.80
2022-07-31T22:22:27.718Z,24.59
2022-07-31T22:24:56.399Z,23.44
2022-07-31T22:27:42.558Z,23.55
2022-07-31T22:30:12.310Z,23.54
2022-07-31T22:32:41.385Z,23.40
2022-07-31T22:35:12.803Z,23.63
2022-07-31T22:37:42.945Z,23.11
2022-07-31T22:40:12.164Z,23.20
2022-07-31T22:42:40.591Z,22.81
2022-07-31T22:45:09.852Z,22.90
2022-07-31T22:47:38.465Z,22.59
2022-07-31T22:50:10.054Z,22.85
2022-07-31T22:52:40.570Z,22.84
2022-07-31T22:55:09.612Z,22.60
2022-07-31T22:57:37.733Z,22.39
2022-07-31T23:00:07.988Z,22.68
2022-07-31T23:02:36.218Z,22.31
2022-07-31T23:05:04.536Z,22.30
2022-07-31T23:07:32.907Z,22.19
2022-07-31T23:10:02.439Z,22.47
2022-07-31T23:12:30.992Z,22.08
2022-07-31T23:14:59.299Z,21.91
2022-07-31T23:17:28.043Z,21.94
2022-07-31T23:19:56.425Z,22.10
2022-07-31T23:22:33.459Z,21.92
2022-07-31T23:25:04.336Z,22.27
2022-07-31T23:27:32.688Z,21.91
2022-07-31T23:30:00.996Z,22.01
2022-07-31T23:32:29.616Z,22.11
2022-07-31T23:34:58.751Z,21.90
2022-07-31T23:37:26.850Z,22.05
2022-07-31T23:39:55.123Z,22.05
2022-07-31T23:42:39.944Z,22.32
2022-07-31T23:45:11.570Z,22.24
2022-07-31T23:47:46.147Z,22.01
2022-07-31T23:50:15.194Z,21.83
2022-07-31T23:52:43.936Z,21.86
2022-07-31T23:55:12.290Z,21.64
2022-07-31T23:57:42.581Z,22.16
